sensor_id;sensor_type;location;lat;lon;timestamp;pressure;altitude;pressure_sealevel;temperature;humidity
64158;BME280;50449;51.528;5.076;2023-05-20T00:00:30;102284.56;;;21.51;39.01
64158;BME280;50449;51.528;5.076;2023-05-20T00:02:55;102284.31;;;21.47;39.03
64158;BME280;50449;51.528;5.076;2023-05-20T00:05:22;102281.28;;;21.44;39.22
64158;BME280;50449;51.528;5.076;2023-05-20T00:07:47;102283.50;;;21.42;39.50
64158;BME280;50449;51.528;5.076;2023-05-20T00:10:13;102287.88;;;21.37;39.12
64158;BME280;50449;51.528;5.076;2023-05-20T00:12:38;102283.78;;;21.35;39.57
64158;BME280;50449;51.528;5.076;2023-05-20T00:15:04;102284.34;;;21.32;39.59
64158;BME280;50449;51.528;5.076;2023-05-20T00:17:30;102285.97;;;21.28;39.74
64158;BME280;50449;51.528;5.076;2023-05-20T00:19:56;102279.94;;;21.26;39.45
64158;BME280;50449;51.528;5.076;2023-05-20T00:22:21;102286.81;;;21.23;39.29
64158;BME280;50449;51.528;5.076;2023-05-20T00:24:47;102287.38;;;21.20;39.33
64158;BME280;50449;51.528;5.076;2023-05-20T00:27:12;102284.31;;;21.16;39.31
64158;BME280;50449;51.528;5.076;2023-05-20T00:29:38;102278.56;;;21.13;39.36
64158;BME280;50449;51.528;5.076;2023-05-20T00:32:03;102270.06;;;21.09;39.52
64158;BME280;50449;51.528;5.076;2023-05-20T00:34:29;102277.75;;;21.07;39.48
64158;BME280;50449;51.528;5.076;2023-05-20T00:36:54;102273.91;;;21.03;39.69
64158;BME280;50449;51.528;5.076;2023-05-20T00:39:20;102274.47;;;21.00;39.82
64158;BME280;50449;51.528;5.076;2023-05-20T00:41:45;102281.34;;;20.98;39.46
64158;BME280;50449;51.528;5.076;2023-05-20T00:44:10;102279.97;;;20.95;39.78
64158;BME280;50449;51.528;5.076;2023-05-20T00:46:36;102277.78;;;20.92;39.50
64158;BME280;50449;51.528;5.076;2023-05-20T00:49:02;102270.91;;;20.89;40.06
64158;BME280;50449;51.528;5.076;2023-05-20T00:51:27;102275.03;;;20.87;39.76
64158;BME280;50449;51.528;5.076;2023-05-20T00:53:53;102269.53;;;20.82;39.73
64158;BME280;50449;51.528;5.076;2023-05-20T00:56:19;102267.06;;;20.80;40.11
64158;BME280;50449;51.528;5.076;2023-05-20T00:58:46;102272.00;;;20.78;39.86
64158;BME280;50449;51.528;5.076;2023-05-20T01:01:11;102270.91;;;20.74;40.11
64158;BME280;50449;51.528;5.076;2023-05-20T01:03:37;102269.53;;;20.71;40.15
64158;BME280;50449;51.528;5.076;2023-05-20T01:06:03;102272.00;;;20.68;40.24
64158;BME280;50449;51.528;5.076;2023-05-20T01:08:28;102267.88;;;20.65;39.88
64158;BME280;50449;51.528;5.076;2023-05-20T01:11:02;102269.25;;;20.63;39.92
64158;BME280;50449;51.528;5.076;2023-05-20T01:13:32;102265.13;;;20.60;39.88
64158;BME280;50449;51.528;5.076;2023-05-20T01:16:02;102260.19;;;20.57;39.78
64158;BME280;50449;51.528;5.076;2023-05-20T01:18:29;102261.56;;;20.55;40.37
64158;BME280;50449;51.528;5.076;2023-05-20T01:20:56;102255.75;;;20.51;40.18
64158;BME280;50449;51.528;5.076;2023-05-20T01:23:52;102253.56;;;20.48;40.14
64158;BME280;50449;51.528;5.076;2023-05-20T01:26:17;102260.69;;;20.44;40.39
64158;BME280;50449;51.528;5.076;2023-05-20T01:28:43;102258.47;;;20.41;40.33
64158;BME280;50449;51.528;5.076;2023-05-20T01:31:23;102261.78;;;20.38;40.08
64158;BME280;50449;51.528;5.076;2023-05-20T01:33:54;102257.66;;;20.35;40.37
64158;BME280;50449;51.528;5.076;2023-05-20T01:36:20;102255.19;;;20.34;40.59
64158;BME280;50449;51.528;5.076;2023-05-20T01:38:47;102254.09;;;20.29;40.48
64158;BME280;50449;51.528;5.076;2023-05-20T01:41:13;102256.25;;;20.27;40.47
64158;BME280;50449;51.528;5.076;2023-05-20T01:43:39;102254.06;;;20.24;40.60
64158;BME280;50449;51.528;5.076;2023-05-20T01:46:05;102250.75;;;20.22;40.66
64158;BME280;50449;51.528;5.076;2023-05-20T01:48:31;102254.06;;;20.19;40.77
64158;BME280;50449;51.528;5.076;2023-05-20T01:50:56;102244.44;;;20.17;40.78
64158;BME280;50449;51.528;5.076;2023-05-20T01:53:22;102243.06;;;20.14;40.27
64158;BME280;50449;51.528;5.076;2023-05-20T01:55:47;102240.88;;;20.11;40.61
64158;BME280;50449;51.528;5.076;2023-05-20T01:58:13;102237.56;;;20.09;40.56
64158;BME280;50449;51.528;5.076;2023-05-20T02:00:38;102236.19;;;20.06;40.34
64158;BME280;50449;51.528;5.076;2023-05-20T02:03:03;102234.81;;;20.04;40.36
64158;BME280;50449;51.528;5.076;2023-05-20T02:05:29;102236.19;;;20.01;40.91
64158;BME280;50449;51.528;5.076;2023-05-20T02:07:55;102230.13;;;19.99;40.83
64158;BME280;50449;51.528;5.076;2023-05-20T02:10:20;102232.31;;;19.97;40.61
64158;BME280;50449;51.528;5.076;2023-05-20T02:12:45;102236.69;;;19.93;40.96
64158;BME280;50449;51.528;5.076;2023-05-20T02:15:12;102234.22;;;19.92;41.00
64158;BME280;50449;51.528;5.076;2023-05-20T02:17:37;102233.94;;;19.88;40.85
64158;BME280;50449;51.528;5.076;2023-05-20T02:20:04;102226.25;;;19.85;40.98
64158;BME280;50449;51.528;5.076;2023-05-20T02:22:31;102224.06;;;19.82;40.57
64158;BME280;50449;51.528;5.076;2023-05-20T02:24:57;102222.66;;;19.79;40.71
64158;BME280;50449;51.528;5.076;2023-05-20T02:27:22;102222.41;;;19.76;41.15
64158;BME280;50449;51.528;5.076;2023-05-20T02:29:48;102219.91;;;19.74;40.94
64158;BME280;50449;51.528;5.076;2023-05-20T02:32:13;102227.56;;;19.72;41.07
64158;BME280;50449;51.528;5.076;2023-05-20T02:34:38;102221.81;;;19.69;40.66
64158;BME280;50449;51.528;5.076;2023-05-20T02:37:04;102223.16;;;19.66;41.22
64158;BME280;50449;51.528;5.076;2023-05-20T02:39:29;102225.31;;;19.64;41.04
64158;BME280;50449;51.528;5.076;2023-05-20T02:41:55;102225.88;;;19.61;41.19
64158;BME280;50449;51.528;5.076;2023-05-20T02:44:20;102227.22;;;19.58;41.32
64158;BME280;50449;51.528;5.076;2023-05-20T02:46:46;102222.25;;;19.55;41.25
64158;BME280;50449;51.528;5.076;2023-05-20T02:49:11;102225.53;;;19.52;41.22
64158;BME280;50449;51.528;5.076;2023-05-20T02:51:39;102223.34;;;19.49;41.24
64158;BME280;50449;51.528;5.076;2023-05-20T02:54:04;102225.50;;;19.47;41.44
64158;BME280;50449;51.528;5.076;2023-05-20T02:56:30;102224.94;;;19.45;41.53
64158;BME280;50449;51.528;5.076;2023-05-20T02:58:56;102229.88;;;19.43;41.02
64158;BME280;50449;51.528;5.076;2023-05-20T03:01:21;102221.09;;;19.41;41.02
64158;BME280;50449;51.528;5.076;2023-05-20T03:03:47;102219.16;;;19.36;41.52
64158;BME280;50449;51.528;5.076;2023-05-20T03:06:13;102219.41;;;19.35;41.16
64158;BME280;50449;51.528;5.076;2023-05-20T03:08:38;102215.28;;;19.32;41.63
64158;BME280;50449;51.528;5.076;2023-05-20T03:11:04;102223.78;;;19.31;41.60
64158;BME280;50449;51.528;5.076;2023-05-20T03:13:29;102220.75;;;19.27;41.37
64158;BME280;50449;51.528;5.076;2023-05-20T03:15:55;102231.13;;;19.25;41.65
64158;BME280;50449;51.528;5.076;2023-05-20T03:18:20;102227.00;;;19.22;41.56
64158;BME280;50449;51.528;5.076;2023-05-20T03:20:46;102230.28;;;19.19;41.72
64158;BME280;50449;51.528;5.076;2023-05-20T03:23:11;102222.59;;;19.16;41.57
64158;BME280;50449;51.528;5.076;2023-05-20T03:25:37;102221.22;;;19.14;41.67
64158;BME280;50449;51.528;5.076;2023-05-20T03:28:03;102223.41;;;19.12;41.89
64158;BME280;50449;51.528;5.076;2023-05-20T03:30:30;102222.28;;;19.08;41.79
64158;BME280;50449;51.528;5.076;2023-05-20T03:32:57;102223.34;;;19.07;41.42
64158;BME280;50449;51.528;5.076;2023-05-20T03:35:22;102218.41;;;19.03;42.13
64158;BME280;50449;51.528;5.076;2023-05-20T03:37:48;102228.81;;;19.01;41.47
64158;BME280;50449;51.528;5.076;2023-05-20T03:40:15;102218.13;;;19.00;41.76
64158;BME280;50449;51.528;5.076;2023-05-20T03:42:41;102213.16;;;18.97;41.93
64158;BME280;50449;51.528;5.076;2023-05-20T03:45:07;102219.16;;;18.94;42.19
64158;BME280;50449;51.528;5.076;2023-05-20T03:47:32;102214.78;;;18.93;41.98
64158;BME280;50449;51.528;5.076;2023-05-20T03:49:58;102209.81;;;18.90;42.08
64158;BME280;50449;51.528;5.076;2023-05-20T03:52:23;102216.66;;;18.87;42.13
64158;BME280;50449;51.528;5.076;2023-05-20T03:54:48;102216.09;;;18.85;41.98
64158;BME280;50449;51.528;5.076;2023-05-20T03:57:14;102219.34;;;18.82;42.24
64158;BME280;50449;51.528;5.076;2023-05-20T03:59:40;102214.41;;;18.79;41.84
64158;BME280;50449;51.528;5.076;2023-05-20T04:02:07;102209.22;;;18.77;42.04
64158;BME280;50449;51.528;5.076;2023-05-20T04:04:33;102211.38;;;18.75;42.07
64158;BME280;50449;51.528;5.076;2023-05-20T04:06:58;102228.03;;;18.74;42.03
64158;BME280;50449;51.528;5.076;2023-05-20T04:09:25;102228.53;;;18.71;42.25
64158;BME280;50449;51.528;5.076;2023-05-20T04:11:51;102217.03;;;18.69;42.29
64158;BME280;50449;51.528;5.076;2023-05-20T04:14:16;102216.47;;;18.67;42.04
64158;BME280;50449;51.528;5.076;2023-05-20T04:16:42;102213.44;;;18.63;42.38
64158;BME280;50449;51.528;5.076;2023-05-20T04:19:09;102218.34;;;18.61;42.48
64158;BME280;50449;51.528;5.076;2023-05-20T04:21:35;102221.31;;;18.59;42.36
64158;BME280;50449;51.528;5.076;2023-05-20T04:24:00;102219.94;;;18.57;42.08
64158;BME280;50449;51.528;5.076;2023-05-20T04:26:26;102222.13;;;18.55;42.36
64158;BME280;50449;51.528;5.076;2023-05-20T04:28:51;102224.28;;;18.53;42.48
64158;BME280;50449;51.528;5.076;2023-05-20T04:31:17;102213.88;;;18.50;42.50
64158;BME280;50449;51.528;5.076;2023-05-20T04:33:42;102219.59;;;18.48;42.28
64158;BME280;50449;51.528;5.076;2023-05-20T04:36:11;102219.03;;;18.46;42.59
64158;BME280;50449;51.528;5.076;2023-05-20T04:38:40;102222.03;;;18.45;42.58
64158;BME280;50449;51.528;5.076;2023-05-20T04:41:06;102220.66;;;18.42;42.28
64158;BME280;50449;51.528;5.076;2023-05-20T04:43:32;102224.72;;;18.40;42.48
64158;BME280;50449;51.528;5.076;2023-05-20T04:45:58;102220.59;;;18.37;42.55
64158;BME280;50449;51.528;5.076;2023-05-20T04:48:26;102216.19;;;18.36;42.63
64158;BME280;50449;51.528;5.076;2023-05-20T04:50:51;102216.72;;;18.33;42.91
64158;BME280;50449;51.528;5.076;2023-05-20T04:53:18;102219.69;;;18.31;42.69
64158;BME280;50449;51.528;5.076;2023-05-20T04:55:46;102218.88;;;18.31;42.56
64158;BME280;50449;51.528;5.076;2023-05-20T04:58:11;102219.13;;;18.29;42.88
64158;BME280;50449;51.528;5.076;2023-05-20T05:00:43;102216.66;;;18.28;42.77
64158;BME280;50449;51.528;5.076;2023-05-20T05:03:09;102208.72;;;18.26;42.72
64158;BME280;50449;51.528;5.076;2023-05-20T05:05:36;102210.88;;;18.24;43.14
64158;BME280;50449;51.528;5.076;2023-05-20T05:08:04;102201.84;;;18.24;42.91
64158;BME280;50449;51.528;5.076;2023-05-20T05:10:30;102198.53;;;18.22;42.81
64158;BME280;50449;51.528;5.076;2023-05-20T05:12:56;102198.53;;;18.22;42.71
64158;BME280;50449;51.528;5.076;2023-05-20T05:15:22;102205.09;;;18.21;42.87
64158;BME280;50449;51.528;5.076;2023-05-20T05:17:47;102202.63;;;18.19;42.82
64158;BME280;50449;51.528;5.076;2023-05-20T05:20:12;102213.00;;;18.17;43.17
64158;BME280;50449;51.528;5.076;2023-05-20T05:22:38;102209.44;;;18.16;42.86
64158;BME280;50449;51.528;5.076;2023-05-20T05:25:06;102205.06;;;18.15;43.05
64158;BME280;50449;51.528;5.076;2023-05-20T05:27:32;102212.16;;;18.16;43.24
64158;BME280;50449;51.528;5.076;2023-05-20T05:29:57;102209.72;;;18.15;42.70
64158;BME280;50449;51.528;5.076;2023-05-20T05:32:22;102201.75;;;18.13;43.30
64158;BME280;50449;51.528;5.076;2023-05-20T05:34:48;102201.50;;;18.15;43.18
64158;BME280;50449;51.528;5.076;2023-05-20T05:37:13;102196.03;;;18.15;43.16
64158;BME280;50449;51.528;5.076;2023-05-20T05:39:39;102203.66;;;18.13;42.85
64158;BME280;50449;51.528;5.076;2023-05-20T05:42:04;102199.84;;;18.14;42.86
64158;BME280;50449;51.528;5.076;2023-05-20T05:44:30;102207.22;;;18.13;43.28
64158;BME280;50449;51.528;5.076;2023-05-20T05:46:56;102214.34;;;18.14;43.23
64158;BME280;50449;51.528;5.076;2023-05-20T05:49:21;102197.94;;;18.14;43.15
64158;BME280;50449;51.528;5.076;2023-05-20T05:51:46;102206.16;;;18.14;43.42
64158;BME280;50449;51.528;5.076;2023-05-20T05:54:12;102208.03;;;18.14;43.12
64158;BME280;50449;51.528;5.076;2023-05-20T05:56:37;102209.94;;;18.13;43.11
64158;BME280;50449;51.528;5.076;2023-05-20T05:59:03;102210.78;;;18.14;43.02
64158;BME280;50449;51.528;5.076;2023-05-20T06:01:29;102206.16;;;18.14;43.42
64158;BME280;50449;51.528;5.076;2023-05-20T06:03:54;102210.28;;;18.17;43.23
64158;BME280;50449;51.528;5.076;2023-05-20T06:06:20;102214.91;;;18.16;43.09
64158;BME280;50449;51.528;5.076;2023-05-20T06:08:45;102211.09;;;18.17;43.50
64158;BME280;50449;51.528;5.076;2023-05-20T06:11:11;102202.06;;;18.17;43.34
64158;BME280;50449;51.528;5.076;2023-05-20T06:13:36;102198.25;;;18.18;43.45
64158;BME280;50449;51.528;5.076;2023-05-20T06:16:02;102202.63;;;18.19;43.32
64158;BME280;50449;51.528;5.076;2023-05-20T06:18:27;102207.84;;;18.21;43.46
64158;BME280;50449;51.528;5.076;2023-05-20T06:20:55;102210.56;;;18.21;43.81
64158;BME280;50449;51.528;5.076;2023-05-20T06:23:20;102204.59;;;18.24;43.84
64158;BME280;50449;51.528;5.076;2023-05-20T06:25:46;102196.38;;;18.24;43.62
64158;BME280;50449;51.528;5.076;2023-05-20T06:28:12;102194.47;;;18.24;43.78
64158;BME280;50449;51.528;5.076;2023-05-20T06:30:38;102187.09;;;18.25;43.62
64158;BME280;50449;51.528;5.076;2023-05-20T06:33:03;102186.00;;;18.26;43.77
64158;BME280;50449;51.528;5.076;2023-05-20T06:35:29;102181.34;;;18.26;43.86
64158;BME280;50449;51.528;5.076;2023-05-20T06:37:54;102177.81;;;18.26;44.02
64158;BME280;50449;51.528;5.076;2023-05-20T06:40:20;102183.03;;;18.27;44.13
64158;BME280;50449;51.528;5.076;2023-05-20T06:42:45;102178.94;;;18.30;43.91
64158;BME280;50449;51.528;5.076;2023-05-20T06:45:11;102183.91;;;18.33;44.32
64158;BME280;50449;51.528;5.076;2023-05-20T06:47:37;102175.97;;;18.36;43.93
64158;BME280;50449;51.528;5.076;2023-05-20T06:50:03;102177.38;;;18.39;44.01
64158;BME280;50449;51.528;5.076;2023-05-20T06:52:29;102166.75;;;18.43;44.44
64158;BME280;50449;51.528;5.076;2023-05-20T06:54:54;102177.97;;;18.46;44.47
64158;BME280;50449;51.528;5.076;2023-05-20T06:57:19;102169.53;;;18.48;44.54
64158;BME280;50449;51.528;5.076;2023-05-20T06:59:46;102171.72;;;18.51;44.32
64158;BME280;50449;51.528;5.076;2023-05-20T07:02:11;102176.69;;;18.54;44.48
64158;BME280;50449;51.528;5.076;2023-05-20T07:04:37;102177.00;;;18.57;44.48
64158;BME280;50449;51.528;5.076;2023-05-20T07:07:02;102172.91;;;18.60;45.21
64158;BME280;50449;51.528;5.076;2023-05-20T07:09:28;102167.16;;;18.62;44.84
64158;BME280;50449;51.528;5.076;2023-05-20T07:11:53;102168.53;;;18.64;44.67
64158;BME280;50449;51.528;5.076;2023-05-20T07:14:19;102163.63;;;18.66;44.71
64158;BME280;50449;51.528;5.076;2023-05-20T07:16:44;102162.28;;;18.69;45.13
64158;BME280;50449;51.528;5.076;2023-05-20T07:19:10;102160.94;;;18.71;44.88
64158;BME280;50449;51.528;5.076;2023-05-20T07:21:35;102164.00;;;18.75;45.05
64158;BME280;50449;51.528;5.076;2023-05-20T07:24:01;102159.66;;;18.79;44.38
64158;BME280;50449;51.528;5.076;2023-05-20T07:26:26;102155.56;;;18.81;45.20
64158;BME280;50449;51.528;5.076;2023-05-20T07:28:51;102152.84;;;18.87;44.72
64158;BME280;50449;51.528;5.076;2023-05-20T07:31:17;102143.03;;;18.91;44.36
64158;BME280;50449;51.528;5.076;2023-05-20T07:33:42;102154.28;;;18.94;44.85
64158;BME280;50449;51.528;5.076;2023-05-20T07:36:08;102147.19;;;18.98;45.33
64158;BME280;50449;51.528;5.076;2023-05-20T07:38:33;102156.53;;;19.02;45.52
64158;BME280;50449;51.528;5.076;2023-05-20T07:40:58;102146.69;;;19.07;45.19
64158;BME280;50449;51.528;5.076;2023-05-20T07:43:24;102143.97;;;19.12;45.18
64158;BME280;50449;51.528;5.076;2023-05-20T07:45:49;102143.72;;;19.18;44.68
64158;BME280;50449;51.528;5.076;2023-05-20T07:48:15;102138.00;;;19.25;45.07
64158;BME280;50449;51.528;5.076;2023-05-20T07:50:40;102140.75;;;19.30;45.30
64158;BME280;50449;51.528;5.076;2023-05-20T07:53:06;102136.16;;;19.36;45.14
64158;BME280;50449;51.528;5.076;2023-05-20T07:55:34;102140.81;;;19.40;45.52
64158;BME280;50449;51.528;5.076;2023-05-20T07:58:01;102136.19;;;19.46;45.04
64158;BME280;50449;51.528;5.076;2023-05-20T08:00:26;102134.84;;;19.54;45.01
64158;BME280;50449;51.528;5.076;2023-05-20T08:02:52;102136.50;;;19.60;45.53
64158;BME280;50449;51.528;5.076;2023-05-20T08:05:17;102131.59;;;19.67;44.85
64158;BME280;50449;51.528;5.076;2023-05-20T08:07:42;102121.47;;;19.73;45.14
64158;BME280;50449;51.528;5.076;2023-05-20T08:10:08;102120.41;;;19.79;44.98
64158;BME280;50449;51.528;5.076;2023-05-20T08:12:34;102118.22;;;19.86;45.25
64158;BME280;50449;51.528;5.076;2023-05-20T08:14:59;102116.88;;;19.94;45.36
64158;BME280;50449;51.528;5.076;2023-05-20T08:17:25;102121.81;;;20.02;45.08
64158;BME280;50449;51.528;5.076;2023-05-20T08:19:50;102122.06;;;20.10;44.69
64158;BME280;50449;51.528;5.076;2023-05-20T08:22:15;102112.75;;;20.17;45.64
64158;BME280;50449;51.528;5.076;2023-05-20T08:24:41;102114.13;;;20.24;45.91
64158;BME280;50449;51.528;5.076;2023-05-20T08:27:06;102115.50;;;20.32;45.02
64158;BME280;50449;51.528;5.076;2023-05-20T08:29:32;102114.13;;;20.40;45.37
64158;BME280;50449;51.528;5.076;2023-05-20T08:31:57;102113.84;;;20.46;45.50
64158;BME280;50449;51.528;5.076;2023-05-20T08:34:22;102114.97;;;20.56;44.19
64158;BME280;50449;51.528;5.076;2023-05-20T08:36:48;102108.09;;;20.63;43.76
64158;BME280;50449;51.528;5.076;2023-05-20T08:39:13;102102.03;;;20.71;44.49
64158;BME280;50449;51.528;5.076;2023-05-20T08:41:39;102105.59;;;20.82;41.68
64158;BME280;50449;51.528;5.076;2023-05-20T08:44:06;102106.38;;;20.93;42.31
64158;BME280;50449;51.528;5.076;2023-05-20T08:46:33;102115.13;;;21.00;43.27
64158;BME280;50449;51.528;5.076;2023-05-20T08:49:00;102108.25;;;21.08;43.43
64158;BME280;50449;51.528;5.076;2023-05-20T08:51:26;102109.84;;;21.14;43.46
64158;BME280;50449;51.528;5.076;2023-05-20T08:53:53;102103.81;;;21.22;42.06
64158;BME280;50449;51.528;5.076;2023-05-20T08:56:19;102099.34;;;21.31;40.98
64158;BME280;50449;51.528;5.076;2023-05-20T08:58:46;102096.28;;;21.38;41.85
64158;BME280;50449;51.528;5.076;2023-05-20T09:01:11;102094.09;;;21.45;41.50
64158;BME280;50449;51.528;5.076;2023-05-20T09:03:37;102094.59;;;21.52;41.17
64158;BME280;50449;51.528;5.076;2023-05-20T09:06:06;102087.38;;;21.61;40.43
64158;BME280;50449;51.528;5.076;2023-05-20T09:08:32;102093.13;;;21.70;39.70
64158;BME280;50449;51.528;5.076;2023-05-20T09:10:59;102088.94;;;21.78;40.84
64158;BME280;50449;51.528;5.076;2023-05-20T09:13:26;102078.13;;;21.87;41.58
64158;BME280;50449;51.528;5.076;2023-05-20T09:15:51;102079.44;;;21.94;41.56
64158;BME280;50449;51.528;5.076;2023-05-20T09:18:17;102084.88;;;22.04;40.53
64158;BME280;50449;51.528;5.076;2023-05-20T09:20:45;102081.22;;;22.14;40.96
64158;BME280;50449;51.528;5.076;2023-05-20T09:23:11;102085.84;;;22.24;40.95
64158;BME280;50449;51.528;5.076;2023-05-20T09:25:37;102084.41;;;22.32;40.70
64158;BME280;50449;51.528;5.076;2023-05-20T09:28:08;102080.72;;;22.41;40.08
64158;BME280;50449;51.528;5.076;2023-05-20T09:30:34;102075.72;;;22.49;41.08
64158;BME280;50449;51.528;5.076;2023-05-20T09:33:02;102070.38;;;22.57;41.86
64158;BME280;50449;51.528;5.076;2023-05-20T09:35:28;102075.28;;;22.65;41.58
64158;BME280;50449;51.528;5.076;2023-05-20T09:37:55;102068.28;;;22.73;42.32
64158;BME280;50449;51.528;5.076;2023-05-20T09:40:25;102070.41;;;22.81;42.26
64158;BME280;50449;51.528;5.076;2023-05-20T09:45:17;102067.22;;;22.98;41.72
64158;BME280;50449;51.528;5.076;2023-05-20T09:47:43;102063.78;;;23.06;40.35
64158;BME280;50449;51.528;5.076;2023-05-20T09:50:10;102073.88;;;23.16;38.96
64158;BME280;50449;51.528;5.076;2023-05-20T09:52:38;102068.50;;;23.25;38.21
64158;BME280;50449;51.528;5.076;2023-05-20T09:55:04;102063.97;;;23.34;38.10
64158;BME280;50449;51.528;5.076;2023-05-20T09:57:34;102068.00;;;23.42;38.50
64158;BME280;50449;51.528;5.076;2023-05-20T10:00:00;102070.09;;;23.50;37.66
64158;BME280;50449;51.528;5.076;2023-05-20T10:02:26;102069.41;;;23.58;37.96
64158;BME280;50449;51.528;5.076;2023-05-20T10:04:53;102064.06;;;23.67;37.71
64158;BME280;50449;51.528;5.076;2023-05-20T10:07:43;102048.78;;;23.74;41.44
64158;BME280;50449;51.528;5.076;2023-05-20T10:10:36;102049.22;;;23.82;40.33
64158;BME280;50449;51.528;5.076;2023-05-20T10:18:48;102048.78;;;24.07;38.66
64158;BME280;50449;51.528;5.076;2023-05-20T10:21:21;102042.88;;;24.14;38.18
64158;BME280;50449;51.528;5.076;2023-05-20T10:23:51;102036.16;;;24.20;38.96
64158;BME280;50449;51.528;5.076;2023-05-20T10:26:16;102045.97;;;24.26;39.07
64158;BME280;50449;51.528;5.076;2023-05-20T10:28:42;102042.53;;;24.34;39.21
64158;BME280;50449;51.528;5.076;2023-05-20T10:31:21;102046.50;;;24.42;36.87
64158;BME280;50449;51.528;5.076;2023-05-20T10:33:47;102045.03;;;24.50;37.96
64158;BME280;50449;51.528;5.076;2023-05-20T10:36:27;102033.53;;;24.56;36.51
64158;BME280;50449;51.528;5.076;2023-05-20T10:38:57;102027.34;;;24.65;37.23
64158;BME280;50449;51.528;5.076;2023-05-20T10:41:26;102028.84;;;24.71;38.47
64158;BME280;50449;51.528;5.076;2023-05-20T10:46:25;102023.00;;;24.86;38.07
64158;BME280;50449;51.528;5.076;2023-05-20T10:48:50;102021.78;;;24.92;37.28
64158;BME280;50449;51.528;5.076;2023-05-20T10:51:16;102023.81;;;25.00;37.33
64158;BME280;50449;51.528;5.076;2023-05-20T10:53:45;102025.31;;;25.07;36.92
64158;BME280;50449;51.528;5.076;2023-05-20T10:56:18;102018.56;;;25.13;35.91
64158;BME280;50449;51.528;5.076;2023-05-20T10:58:47;102014.88;;;25.17;35.86
64158;BME280;50449;51.528;5.076;2023-05-20T11:01:14;102012.84;;;25.23;38.57
64158;BME280;50449;51.528;5.076;2023-05-20T11:03:40;102014.34;;;25.29;37.82
64158;BME280;50449;51.528;5.076;2023-05-20T11:06:14;102007.59;;;25.35;38.58
64158;BME280;50449;51.528;5.076;2023-05-20T11:08:40;102005.19;;;25.42;38.63
64158;BME280;50449;51.528;5.076;2023-05-20T11:11:06;102000.03;;;25.50;39.81
64158;BME280;50449;51.528;5.076;2023-05-20T11:13:31;101991.59;;;25.55;40.44
64158;BME280;50449;51.528;5.076;2023-05-20T11:15:57;101993.13;;;25.61;38.78
64158;BME280;50449;51.528;5.076;2023-05-20T11:18:25;101987.47;;;25.66;38.09
64158;BME280;50449;51.528;5.076;2023-05-20T11:20:54;101973.50;;;25.71;39.21
64158;BME280;50449;51.528;5.076;2023-05-20T11:23:20;101977.75;;;25.77;39.46
64158;BME280;50449;51.528;5.076;2023-05-20T11:25:49;101980.09;;;25.84;39.22
64158;BME280;50449;51.528;5.076;2023-05-20T11:28:15;101955.88;;;25.89;38.22
64158;BME280;50449;51.528;5.076;2023-05-20T11:30:44;101976.78;;;25.96;37.94
64158;BME280;50449;51.528;5.076;2023-05-20T11:33:14;101981.03;;;26.02;40.25
64158;BME280;50449;51.528;5.076;2023-05-20T11:35:53;101991.97;;;26.07;39.90
64158;BME280;50449;51.528;5.076;2023-05-20T11:38:19;101987.09;;;26.12;38.44
64158;BME280;50449;51.528;5.076;2023-05-20T11:40:51;101989.75;;;26.18;37.89
64158;BME280;50449;51.528;5.076;2023-05-20T11:43:17;101989.59;;;26.23;38.90
64158;BME280;50449;51.528;5.076;2023-05-20T11:45:53;101980.03;;;26.29;38.87
64158;BME280;50449;51.528;5.076;2023-05-20T11:48:19;101977.44;;;26.32;38.81
64158;BME280;50449;51.528;5.076;2023-05-20T11:50:46;101973.38;;;26.39;37.45
64158;BME280;50449;51.528;5.076;2023-05-20T11:53:17;101974.38;;;26.43;37.67
64158;BME280;50449;51.528;5.076;2023-05-20T11:55:57;101973.41;;;26.47;37.68
64158;BME280;50449;51.528;5.076;2023-05-20T11:58:30;101969.81;;;26.47;37.42
64158;BME280;50449;51.528;5.076;2023-05-20T12:00:56;101967.56;;;26.49;37.05
64158;BME280;50449;51.528;5.076;2023-05-20T12:03:22;101964.13;;;26.52;37.29
64158;BME280;50449;51.528;5.076;2023-05-20T12:05:47;101954.41;;;26.54;35.79
64158;BME280;50449;51.528;5.076;2023-05-20T12:08:14;101950.16;;;26.57;36.02
64158;BME280;50449;51.528;5.076;2023-05-20T12:10:40;101943.16;;;26.60;36.15
64158;BME280;50449;51.528;5.076;2023-05-20T12:13:06;101946.09;;;26.63;36.56
64158;BME280;50449;51.528;5.076;2023-05-20T12:15:36;101952.94;;;26.66;36.52
64158;BME280;50449;51.528;5.076;2023-05-20T12:18:02;101949.03;;;26.67;36.63
64158;BME280;50449;51.528;5.076;2023-05-20T12:20:28;101941.22;;;26.69;36.48
64158;BME280;50449;51.528;5.076;2023-05-20T12:22:55;101938.13;;;26.70;36.79
64158;BME280;50449;51.528;5.076;2023-05-20T12:25:20;101930.28;;;26.72;36.65
64158;BME280;50449;51.528;5.076;2023-05-20T12:27:47;101932.75;;;26.74;36.26
64158;BME280;50449;51.528;5.076;2023-05-20T12:30:16;101925.25;;;26.74;35.93
64158;BME280;50449;51.528;5.076;2023-05-20T12:32:42;101932.09;;;26.77;36.59
64158;BME280;50449;51.528;5.076;2023-05-20T12:35:09;101938.47;;;26.77;35.56
64158;BME280;50449;51.528;5.076;2023-05-20T12:37:39;101921.50;;;26.79;36.42
64158;BME280;50449;51.528;5.076;2023-05-20T12:40:06;101927.88;;;26.80;36.59
64158;BME280;50449;51.528;5.076;2023-05-20T12:42:36;101929.47;;;26.81;36.08
64158;BME280;50449;51.528;5.076;2023-05-20T12:45:02;101934.72;;;26.82;35.08
64158;BME280;50449;51.528;5.076;2023-05-20T12:47:28;101928.03;;;26.83;34.01
64158;BME280;50449;51.528;5.076;2023-05-20T12:49:54;101925.75;;;26.85;34.83
64158;BME280;50449;51.528;5.076;2023-05-20T12:52:19;101934.06;;;26.85;36.00
64158;BME280;50449;51.528;5.076;2023-05-20T12:54:44;101922.16;;;26.85;36.29
64158;BME280;50449;51.528;5.076;2023-05-20T12:57:10;101920.69;;;26.87;34.81